ADDS METAR Data INFO
IDs: Format: Raw Decoded Include TAF

Data at: 0712 UTC 19 Oct 2017

KSFM 190656Z AUTO 00000KT 10SM CLR 02/01 A3022 RMK AO2 SLP237 T00170011 FZRANO
KSFM 190556Z AUTO 00000KT 10SM CLR 03/02 A3023 RMK AO2 SLP240 T00280022 10078 20017 58007
KSFM 190456Z AUTO 00000KT 10SM CLR 03/03 A3023 RMK AO2 SLPNO T00330028
KSFM 190356Z AUTO 00000KT 10SM CLR 04/03 A3025 RMK AO2 SLPNO T00390033 402110033
KSFM 190256Z AUTO 00000KT 10SM CLR 06/05 A3025 RMK AO2 SLPNO T00560050 50002
KSFM 190156Z AUTO 00000KT 10SM CLR 04/04 A3026 RMK AO2 SLPNO T00440039
KSFM 190056Z AUTO 00000KT 10SM CLR 07/06 A3025 RMK AO2 SLPNO T00670056
KSFM 182356Z AUTO 00000KT 10SM CLR 07/06 A3025 RMK AO2 SLPNO T00670056 10211 20067 51016
KSFM 182256Z AUTO 00000KT 10SM CLR 09/07 A3024 RMK AO2 SLPNO T00890067
KSFM 182156Z AUTO 00000KT 10SM CLR 13/08 A3022 RMK AO2 SLPNO T01280078
KSFM 182056Z AUTO 28005KT 10SM CLR 20/05 A3020 RMK AO2 SLPNO T02000050 53002
KSFM 181956Z AUTO 29007KT 10SM CLR 21/06 A3020 RMK AO2 SLPNO T02060061
KSFM 181856Z AUTO 25007KT 10SM CLR 21/07 A3019 RMK AO2 SLPNO T02110067
KSFM 181756Z AUTO 31007KT 10SM 21/07 A3019 RMK AO2 SLPNO 6//// T02060067
KSFM 181737Z AUTO 33006KT 10SM 20/07 A3020 RMK AO2 SLPNO T02000067
KSFM 181256Z AUTO 29008KT 10SM 13/04 A3021 RMK AO2 SLPNO T01280039
KSFM 181156Z AUTO 24005KT 10SM CLR 07/02 A3019 RMK AO2 SLP234 T00670022 10067 20017 53012
KSFM 181056Z AUTO 25005KT 10SM CLR 04/01 A3018 RMK AO2 SLP230 T00440011
KSFM 180956Z AUTO 24010KT 10SM CLR 04/01 A3015 RMK AO2 SLP223 T00440011
KSFM 180856Z AUTO VRB03KT 10SM CLR 04/01 A3015 RMK AO2 SLP223 T00440011 55002
KSFM 180756Z AUTO 00000KT 10SM CLR 02/01 A3015 RMK AO2 SLP222 T00220006 FZRANO
KSFM 180656Z AUTO 20005KT 10SM FEW110 05/01 A3015 RMK AO2 SLP221 T00500011
KSFM 180556Z AUTO 19005KT 10SM SCT110 05/01 A3016 RMK AO2 SLP225 T00500006 10067 20017 58009
KSFM 180456Z AUTO 20005KT 10SM CLR 05/01 A3017 RMK AO2 SLP229 T00500006 401331028
KSFM 180356Z AUTO 22004KT 10SM CLR 05/01 A3019 RMK AO2 SLP234 T00500006
KSFM 180256Z AUTO 21006KT 10SM CLR 07/01 A3019 RMK AO2 SLP235 T00670006 50000
KSFM 180156Z AUTO 00000KT 10SM CLR 05/01 A3020 RMK AO2 SLP238 T00500006
KSFM 180056Z AUTO 21005KT 10SM CLR 07/01 A3020 RMK AO2 SLP238 T00670011 TSNO
KSFM 172356Z AUTO 18003KT 10SM CLR 06/01 A3019 RMK AO2 SLP235 T00560011 10133 20039 53003
KSFM 172256Z AUTO 00000KT 10SM CLR 06/01 A3018 RMK AO2 SLP233 T00610011
KSFM 172156Z AUTO 19003KT 10SM CLR 10/00 A3018 RMK AO2 SLP232 T01000000
KSFM 172056Z AUTO 23008KT 10SM CLR 13/M01 A3018 RMK AO2 SLP231 T01281011 56013
KSFM 171956Z AUTO 23009KT 10SM CLR 13/M01 A3019 RMK AO2 SLP233 T01331011